createdAt,value
2018-02-05T00:00:05.613Z,984.43
2018-02-05T00:01:05.204Z,984.59
2018-02-05T00:02:05.842Z,984.37
2018-02-05T00:03:05.595Z,984.43
2018-02-05T00:04:05.865Z,984.54
2018-02-05T00:05:05.539Z,984.43
2018-02-05T00:06:05.969Z,984.59
2018-02-05T00:07:05.643Z,984.40
2018-02-05T00:08:05.597Z,984.46
2018-02-05T00:09:05.108Z,984.49
2018-02-05T00:10:06.769Z,984.49
2018-02-05T00:11:05.796Z,984.41
2018-02-05T00:12:05.198Z,984.46
2018-02-05T00:13:05.658Z,984.35
2018-02-05T00:14:05.300Z,984.49
2018-02-05T00:15:05.207Z,984.32
2018-02-05T00:16:05.366Z,984.49
2018-02-05T00:17:05.702Z,984.57
2018-02-05T00:18:05.607Z,984.46
2018-02-05T00:19:05.259Z,984.49
2018-02-05T00:20:05.629Z,984.44
2018-02-05T00:21:05.040Z,984.36
2018-02-05T00:22:05.092Z,984.63
2018-02-05T00:23:05.371Z,984.61
2018-02-05T00:24:05.330Z,984.61
2018-02-05T00:25:05.390Z,984.36
2018-02-05T00:26:05.844Z,984.36
2018-02-05T00:27:10.523Z,984.47
2018-02-05T00:28:05.679Z,984.44
2018-02-05T00:29:10.734Z,984.64
2018-02-05T00:30:05.801Z,984.44
2018-02-05T00:31:05.554Z,984.58
2018-02-05T00:32:05.692Z,984.61
2018-02-05T00:33:05.376Z,984.56
2018-02-05T00:34:05.373Z,984.45
2018-02-05T00:35:05.368Z,984.56
2018-02-05T00:36:05.347Z,984.59
2018-02-05T00:37:05.057Z,984.45
2018-02-05T00:38:04.914Z,984.51
2018-02-05T00:39:10.796Z,984.51
2018-02-05T00:40:05.078Z,984.37
2018-02-05T00:41:05.500Z,984.51
2018-02-05T00:42:05.772Z,984.48
2018-02-05T00:43:05.044Z,984.48
2018-02-05T00:44:05.335Z,984.48
2018-02-05T00:45:05.482Z,984.65
2018-02-05T00:46:05.035Z,984.70
2018-02-05T00:47:05.696Z,984.51
2018-02-05T00:48:05.192Z,984.65
2018-02-05T00:49:05.865Z,984.70
2018-02-05T00:50:06.976Z,984.68
2018-02-05T00:51:05.088Z,984.38
2018-02-05T00:52:06.020Z,984.57
2018-02-05T00:53:05.943Z,984.65
2018-02-05T00:54:05.810Z,984.65
2018-02-05T00:55:05.557Z,984.63
2018-02-05T00:56:05.500Z,984.68
2018-02-05T00:57:05.187Z,984.63
2018-02-05T00:58:05.886Z,984.71
2018-02-05T00:59:06.077Z,984.63
2018-02-05T01:00:06.093Z,984.55
2018-02-05T01:01:05.985Z,984.77
2018-02-05T01:02:05.825Z,984.71
2018-02-05T01:03:05.516Z,984.79
2018-02-05T01:04:05.111Z,984.74
2018-02-05T01:05:05.735Z,984.74
2018-02-05T01:06:05.824Z,984.71
2018-02-05T01:07:05.424Z,984.84
2018-02-05T01:08:05.209Z,985.03
2018-02-05T01:09:05.615Z,984.79
2018-02-05T01:10:05.337Z,984.77
2018-02-05T01:11:05.278Z,984.74
2018-02-05T01:12:05.384Z,984.87
2018-02-05T01:13:05.554Z,984.74
2018-02-05T01:14:05.771Z,984.74
2018-02-05T01:15:05.644Z,984.69
2018-02-05T01:16:05.905Z,984.79
2018-02-05T01:17:05.591Z,984.79
2018-02-05T01:18:05.161Z,984.79
2018-02-05T01:19:05.523Z,984.79
2018-02-05T01:20:05.435Z,984.82
2018-02-05T01:21:05.354Z,984.69
2018-02-05T01:22:05.690Z,984.77
2018-02-05T01:23:05.503Z,984.77
2018-02-05T01:24:05.220Z,984.72
2018-02-05T01:25:05.793Z,984.75
2018-02-05T01:26:05.083Z,984.69
2018-02-05T01:27:05.947Z,984.66
2018-02-05T01:28:05.233Z,984.64
2018-02-05T01:29:05.620Z,984.66
2018-02-05T01:30:05.290Z,984.79
2018-02-05T01:31:05.207Z,984.77
2018-02-05T01:32:05.413Z,984.75
2018-02-05T01:33:05.723Z,984.69
2018-02-05T01:34:05.532Z,984.75
2018-02-05T01:35:05.848Z,984.75
2018-02-05T01:36:05.574Z,984.79
2018-02-05T01:37:05.861Z,984.72
2018-02-05T01:38:05.496Z,984.72
2018-02-05T01:39:05.118Z,984.77
2018-02-05T01:40:05.426Z,984.67
2018-02-05T01:41:05.333Z,984.64
2018-02-05T01:42:05.134Z,984.82
2018-02-05T01:43:05.821Z,984.67
2018-02-05T01:44:05.888Z,984.67
2018-02-05T01:45:06.500Z,984.75
2018-02-05T01:46:10.988Z,984.67
2018-02-05T01:47:05.299Z,984.77
2018-02-05T01:48:05.881Z,984.83
2018-02-05T01:49:05.689Z,984.77
2018-02-05T01:50:05.577Z,984.80
2018-02-05T01:51:05.683Z,984.76
2018-02-05T01:52:05.247Z,984.88
2018-02-05T01:53:05.328Z,984.73
2018-02-05T01:54:05.966Z,984.73
2018-02-05T01:55:10.950Z,984.80
2018-02-05T01:56:05.899Z,984.88
2018-02-05T01:57:05.809Z,984.68
2018-02-05T01:58:05.418Z,984.76
2018-02-05T01:59:05.780Z,984.70
2018-02-05T02:00:05.612Z,984.65
2018-02-05T02:01:15.888Z,984.73
2018-02-05T02:02:05.816Z,984.65
2018-02-05T02:03:05.914Z,984.86
2018-02-05T02:04:05.852Z,984.71
2018-02-05T02:05:05.581Z,984.76
2018-02-05T02:06:05.411Z,984.71
2018-02-05T02:07:05.347Z,984.78
2018-02-05T02:08:05.634Z,984.68
2018-02-05T02:09:05.618Z,984.68
2018-02-05T02:10:05.922Z,984.74
2018-02-05T02:11:05.517Z,984.74
2018-02-05T02:12:05.199Z,984.68
2018-02-05T02:13:05.952Z,984.78
2018-02-05T02:14:05.485Z,984.69
2018-02-05T02:15:05.687Z,984.71
2018-02-05T02:16:05.389Z,984.77
2018-02-05T02:17:05.334Z,984.79
2018-02-05T02:18:05.735Z,984.90
2018-02-05T02:19:05.574Z,984.84
2018-02-05T02:20:05.271Z,984.72
2018-02-05T02:21:05.868Z,984.74
2018-02-05T02:22:05.361Z,984.93
2018-02-05T02:23:05.998Z,984.77
2018-02-05T02:24:05.377Z,984.74
2018-02-05T02:25:05.846Z,984.82
2018-02-05T02:26:04.999Z,984.82
2018-02-05T02:27:05.466Z,984.79
2018-02-05T02:28:05.683Z,984.75
2018-02-05T02:29:05.776Z,984.72
2018-02-05T02:30:05.555Z,984.85
2018-02-05T02:31:05.076Z,984.77
2018-02-05T02:32:05.976Z,984.85
2018-02-05T02:33:05.262Z,984.85
2018-02-05T02:34:05.173Z,984.79
2018-02-05T02:35:05.368Z,984.85
2018-02-05T02:36:05.353Z,984.85
2018-02-05T02:37:05.738Z,984.96
2018-02-05T02:38:05.611Z,985.10
2018-02-05T02:39:05.832Z,984.85
2018-02-05T02:40:05.412Z,984.99
2018-02-05T02:41:05.136Z,984.91
2018-02-05T02:42:05.081Z,984.88
2018-02-05T02:43:05.646Z,984.96
2018-02-05T02:44:05.626Z,984.91
2018-02-05T02:45:05.563Z,984.86
2018-02-05T02:46:05.167Z,984.94
2018-02-05T02:47:05.592Z,984.80
2018-02-05T02:48:05.793Z,984.88
2018-02-05T02:49:05.872Z,984.99
2018-02-05T02:50:05.997Z,985.02
2018-02-05T02:51:05.271Z,984.94
2018-02-05T02:52:05.283Z,985.02
2018-02-05T02:53:10.235Z,984.91
2018-02-05T02:54:05.946Z,984.94
2018-02-05T02:55:05.786Z,985.02
2018-02-05T02:56:04.977Z,984.89
2018-02-05T02:57:05.828Z,984.94
2018-02-05T02:58:05.211Z,984.94
2018-02-05T02:59:05.023Z,985.03
2018-02-05T03:00:05.932Z,985.03
2018-02-05T03:01:06.098Z,984.94
2018-02-05T03:02:05.333Z,985.05
2018-02-05T03:03:05.642Z,984.94
2018-02-05T03:04:05.636Z,985.05
2018-02-05T03:05:05.859Z,985.19
2018-02-05T03:06:05.754Z,985.00
2018-02-05T03:07:05.055Z,984.94
2018-02-05T03:08:05.848Z,985.16
2018-02-05T03:09:05.797Z,985.05
2018-02-05T03:10:05.467Z,985.11
2018-02-05T03:11:05.709Z,985.08
2018-02-05T03:12:05.699Z,984.83
2018-02-05T03:13:05.436Z,984.97
2018-02-05T03:14:05.049Z,985.19
2018-02-05T03:15:05.678Z,985.19
2018-02-05T03:16:05.772Z,985.05
2018-02-05T03:17:05.933Z,985.07
2018-02-05T03:18:05.765Z,985.02
2018-02-05T03:19:05.248Z,985.02
2018-02-05T03:20:05.971Z,985.21
2018-02-05T03:21:05.488Z,985.04
2018-02-05T03:22:05.864Z,985.26
2018-02-05T03:23:05.582Z,985.36
2018-02-05T03:24:05.412Z,985.23
2018-02-05T03:25:05.230Z,985.10
2018-02-05T03:26:05.576Z,985.39
2018-02-05T03:27:05.872Z,985.31
2018-02-05T03:28:06.106Z,985.23
2018-02-05T03:29:05.776Z,985.36
2018-02-05T03:30:05.531Z,985.31
2018-02-05T03:31:05.486Z,985.31
2018-02-05T03:32:05.042Z,985.26
2018-02-05T03:33:05.166Z,985.09
2018-02-05T03:34:05.842Z,985.25
2018-02-05T03:35:10.721Z,985.28
2018-02-05T03:36:10.810Z,985.25
2018-02-05T03:37:06.069Z,985.31
2018-02-05T03:38:05.917Z,985.36
2018-02-05T03:39:05.443Z,985.20
2018-02-05T03:40:10.269Z,985.28
2018-02-05T03:41:05.601Z,985.36
2018-02-05T03:42:05.578Z,985.28
2018-02-05T03:43:05.608Z,985.36
2018-02-05T03:44:05.235Z,985.41
2018-02-05T03:45:05.823Z,985.49
2018-02-05T03:46:05.183Z,985.38
2018-02-05T03:47:05.979Z,985.47
2018-02-05T03:48:05.159Z,985.49
2018-02-05T03:49:05.448Z,985.52
2018-02-05T03:50:05.981Z,985.41
2018-02-05T03:51:05.443Z,985.55
2018-02-05T03:52:05.049Z,985.49
2018-02-05T03:53:05.804Z,985.41
2018-02-05T03:54:05.241Z,985.35
2018-02-05T03:55:05.078Z,985.25
2018-02-05T03:56:05.330Z,985.35
2018-02-05T03:57:05.293Z,985.28
2018-02-05T03:58:05.340Z,985.35
2018-02-05T03:59:05.348Z,985.35
2018-02-05T04:00:05.644Z,985.41
2018-02-05T04:01:05.530Z,985.30
2018-02-05T04:02:05.161Z,985.46
2018-02-05T04:03:06.006Z,985.43
2018-02-05T04:04:05.182Z,985.49
2018-02-05T04:05:05.972Z,985.43
2018-02-05T04:06:05.662Z,985.48
2018-02-05T04:07:10.149Z,985.48
2018-02-05T04:08:05.478Z,985.59
2018-02-05T04:09:05.846Z,985.51
2018-02-05T04:10:05.163Z,985.62
2018-02-05T04:11:05.201Z,985.45
2018-02-05T04:12:05.078Z,985.40
2018-02-05T04:13:15.956Z,985.48
2018-02-05T04:14:05.919Z,985.48
2018-02-05T04:15:05.247Z,985.34
2018-02-05T04:16:05.749Z,985.56
2018-02-05T04:17:05.854Z,985.42
2018-02-05T04:18:05.501Z,985.29
2018-02-05T04:19:06.081Z,985.53
2018-02-05T04:20:05.059Z,985.26
2018-02-05T04:21:10.583Z,985.50
2018-02-05T04:22:10.765Z,985.39
2018-02-05T04:23:05.075Z,985.47
2018-02-05T04:24:05.387Z,985.61
2018-02-05T04:25:06.007Z,985.56
2018-02-05T04:26:05.455Z,985.47
2018-02-05T04:27:05.507Z,985.44
2018-02-05T04:28:05.710Z,985.44
2018-02-05T04:29:05.667Z,985.39
2018-02-05T04:30:05.781Z,985.39
2018-02-05T04:31:05.403Z,985.41
2018-02-05T04:32:05.181Z,985.60
2018-02-05T04:33:05.533Z,985.55
2018-02-05T04:34:05.437Z,985.55
2018-02-05T04:35:05.297Z,985.63
2018-02-05T04:36:05.955Z,985.57
2018-02-05T04:37:05.081Z,985.46
2018-02-05T04:38:05.643Z,985.54
2018-02-05T04:39:05.744Z,985.74
2018-02-05T04:40:05.240Z,985.71
2018-02-05T04:41:05.016Z,985.62
2018-02-05T04:42:05.543Z,985.49
2018-02-05T04:43:05.530Z,985.65
2018-02-05T04:44:05.456Z,985.68
2018-02-05T04:45:05.358Z,985.81
2018-02-05T04:46:06.184Z,985.65
2018-02-05T04:47:05.576Z,985.67
2018-02-05T04:48:05.946Z,985.76
2018-02-05T04:49:05.668Z,985.65
2018-02-05T04:50:05.097Z,985.51
2018-02-05T04:51:06.212Z,985.64
2018-02-05T04:52:05.205Z,985.75
2018-02-05T04:53:05.342Z,985.70
2018-02-05T04:54:05.586Z,985.59
2018-02-05T04:55:05.463Z,985.67
2018-02-05T04:56:04.968Z,985.61
2018-02-05T04:57:05.899Z,985.72
2018-02-05T04:58:05.793Z,985.72
2018-02-05T04:59:05.456Z,985.72
2018-02-05T05:00:05.545Z,985.61
2018-02-05T05:01:05.624Z,985.78
2018-02-05T05:02:05.167Z,985.64
2018-02-05T05:03:05.010Z,985.75
2018-02-05T05:04:05.470Z,985.66
2018-02-05T05:05:05.547Z,985.83
2018-02-05T05:06:05.384Z,985.66
2018-02-05T05:07:05.909Z,985.69
2018-02-05T05:08:05.740Z,985.61
2018-02-05T05:09:05.822Z,985.69
2018-02-05T05:10:06.077Z,985.80
2018-02-05T05:11:05.342Z,985.66
2018-02-05T05:12:05.160Z,985.77
2018-02-05T05:13:05.870Z,985.71
2018-02-05T05:14:05.080Z,985.69
2018-02-05T05:15:05.675Z,985.63
2018-02-05T05:16:05.247Z,985.66
2018-02-05T05:17:05.926Z,985.85
2018-02-05T05:18:05.796Z,985.69
2018-02-05T05:19:05.352Z,985.79
2018-02-05T05:20:06.049Z,985.85
2018-02-05T05:21:05.734Z,985.68
2018-02-05T05:22:05.873Z,985.85
2018-02-05T05:23:05.468Z,985.71
2018-02-05T05:24:11.456Z,985.82
2018-02-05T05:25:06.021Z,985.85
2018-02-05T05:26:05.655Z,985.90
2018-02-05T05:27:05.314Z,985.87
2018-02-05T05:28:05.695Z,985.90
2018-02-05T05:29:05.368Z,985.85
2018-02-05T05:30:05.911Z,985.85
2018-02-05T05:31:05.498Z,985.98
2018-02-05T05:32:05.778Z,985.93
2018-02-05T05:33:05.036Z,985.90
2018-02-05T05:34:05.740Z,985.87
2018-02-05T05:35:05.742Z,985.87
2018-02-05T05:36:05.863Z,986.06
2018-02-05T05:37:05.983Z,986.01
2018-02-05T05:38:05.124Z,985.95
2018-02-05T05:39:05.738Z,985.98
2018-02-05T05:40:05.500Z,985.92
2018-02-05T05:41:05.418Z,985.92
2018-02-05T05:42:06.168Z,985.98
2018-02-05T05:43:05.615Z,985.92
2018-02-05T05:44:05.201Z,986.03
2018-02-05T05:45:05.788Z,985.98
2018-02-05T05:46:05.395Z,986.12
2018-02-05T05:47:05.012Z,986.06
2018-02-05T05:48:05.612Z,986.03
2018-02-05T05:49:05.138Z,985.98
2018-02-05T05:50:05.740Z,986.03
2018-02-05T05:51:05.778Z,986.14
2018-02-05T05:52:05.331Z,986.09
2018-02-05T05:53:05.988Z,986.00
2018-02-05T05:54:05.770Z,986.20
2018-02-05T05:55:05.624Z,986.17
2018-02-05T05:56:05.177Z,986.11
2018-02-05T05:57:05.872Z,986.17
2018-02-05T05:58:05.356Z,986.28
2018-02-05T05:59:06.649Z,986.28
2018-02-05T06:00:05.637Z,986.20
2018-02-05T06:01:05.341Z,986.20
2018-02-05T06:02:05.746Z,986.17
2018-02-05T06:03:05.200Z,986.20
2018-02-05T06:04:05.273Z,986.17
2018-02-05T06:05:05.041Z,986.19
2018-02-05T06:06:10.947Z,986.30
2018-02-05T06:07:10.133Z,986.22
2018-02-05T06:08:05.425Z,986.28
2018-02-05T06:09:05.572Z,986.28
2018-02-05T06:10:05.216Z,986.11
2018-02-05T06:11:05.134Z,986.28
2018-02-05T06:12:05.811Z,986.22
2018-02-05T06:13:05.358Z,986.33
2018-02-05T06:14:05.646Z,986.44
2018-02-05T06:15:05.082Z,986.38
2018-02-05T06:16:05.178Z,986.30
2018-02-05T06:17:05.141Z,986.27
2018-02-05T06:18:06.404Z,986.30
2018-02-05T06:19:05.502Z,986.41
2018-02-05T06:20:05.467Z,986.19
2018-02-05T06:21:05.727Z,986.22
2018-02-05T06:22:05.506Z,986.38
2018-02-05T06:23:05.503Z,986.33
2018-02-05T06:24:05.306Z,986.38
2018-02-05T06:25:05.061Z,986.19
2018-02-05T06:26:06.723Z,986.27
2018-02-05T06:27:05.443Z,986.41
2018-02-05T06:28:05.899Z,986.33
2018-02-05T06:29:05.442Z,986.47
2018-02-05T06:30:10.871Z,986.36
2018-02-05T06:31:05.528Z,986.47
2018-02-05T06:32:05.581Z,986.49
2018-02-05T06:33:05.470Z,986.36
2018-02-05T06:34:05.797Z,986.47
2018-02-05T06:35:05.664Z,986.38
2018-02-05T06:36:08.581Z,986.35
2018-02-05T06:37:05.486Z,986.35
2018-02-05T06:38:05.571Z,986.49
2018-02-05T06:39:05.517Z,986.35
2018-02-05T06:40:06.042Z,986.47
2018-02-05T06:41:05.860Z,986.55
2018-02-05T06:42:05.448Z,986.46
2018-02-05T06:43:06.088Z,986.44
2018-02-05T06:44:06.149Z,986.55
2018-02-05T06:45:05.238Z,986.35
2018-02-05T06:46:06.096Z,986.46
2018-02-05T06:47:05.234Z,986.38
2018-02-05T06:48:04.956Z,986.35
2018-02-05T06:49:05.284Z,986.46
2018-02-05T06:50:05.775Z,986.32
2018-02-05T06:51:06.808Z,986.32
2018-02-05T06:52:05.521Z,986.41
2018-02-05T06:53:05.389Z,986.38
2018-02-05T06:54:05.607Z,986.49
2018-02-05T06:55:05.477Z,986.41
2018-02-05T06:56:05.943Z,986.43
2018-02-05T06:57:05.808Z,986.38
2018-02-05T06:58:05.214Z,986.43
2018-02-05T06:59:05.869Z,986.35
2018-02-05T07:00:05.248Z,986.46
2018-02-05T07:01:06.238Z,986.29
2018-02-05T07:02:05.456Z,986.38
2018-02-05T07:03:05.228Z,986.27
2018-02-05T07:04:05.722Z,986.46
2018-02-05T07:05:10.299Z,986.49
2018-02-05T07:06:05.451Z,986.38
2018-02-05T07:07:05.679Z,986.51
2018-02-05T07:08:05.639Z,986.38
2018-02-05T07:09:05.837Z,986.49
2018-02-05T07:10:05.728Z,986.40
2018-02-05T07:11:05.094Z,986.46
2018-02-05T07:12:05.690Z,986.54
2018-02-05T07:13:05.379Z,986.58
2018-02-05T07:14:06.428Z,986.56
2018-02-05T07:15:05.661Z,986.56
2018-02-05T07:16:05.362Z,986.43
2018-02-05T07:17:05.185Z,986.37
2018-02-05T07:18:05.160Z,986.51
2018-02-05T07:19:05.833Z,986.45
2018-02-05T07:20:05.309Z,986.40
2018-02-05T07:21:05.214Z,986.51
2018-02-05T07:22:06.273Z,986.61
2018-02-05T07:23:05.280Z,986.56
2018-02-05T07:24:05.229Z,986.34
2018-02-05T07:25:04.990Z,986.45
2018-02-05T07:26:05.053Z,986.56
2018-02-05T07:27:05.050Z,986.58
2018-02-05T07:28:05.895Z,986.40
2018-02-05T07:29:05.590Z,986.56
2018-02-05T07:30:06.146Z,986.48
2018-02-05T07:31:05.589Z,986.42
2018-02-05T07:32:05.476Z,986.56
2018-02-05T07:33:05.905Z,986.61
2018-02-05T07:34:05.297Z,986.63
2018-02-05T07:35:05.146Z,986.58
2018-02-05T07:36:05.830Z,986.53
2018-02-05T07:37:05.266Z,986.56
2018-02-05T07:38:06.103Z,986.53
2018-02-05T07:39:05.351Z,986.66
2018-02-05T07:40:05.376Z,986.58
2018-02-05T07:41:05.456Z,986.71
2018-02-05T07:42:05.289Z,986.63
2018-02-05T07:43:05.636Z,986.71
2018-02-05T07:44:05.324Z,986.71
2018-02-05T07:45:05.932Z,986.74
2018-02-05T07:46:05.207Z,986.71
2018-02-05T07:47:05.849Z,986.74
2018-02-05T07:48:05.808Z,986.80
2018-02-05T07:49:05.612Z,986.63
2018-02-05T07:50:10.974Z,986.71
2018-02-05T07:51:05.561Z,986.79
2018-02-05T07:52:05.229Z,986.82
2018-02-05T07:53:05.148Z,986.71
2018-02-05T07:54:05.555Z,986.68
2018-02-05T07:55:05.657Z,986.82
2018-02-05T07:56:05.387Z,986.82
2018-02-05T07:57:05.434Z,986.85
2018-02-05T07:58:05.595Z,986.88
2018-02-05T07:59:05.214Z,986.76
2018-02-05T08:00:05.205Z,986.74
2018-02-05T08:01:05.315Z,986.87
2018-02-05T08:02:05.053Z,986.99
2018-02-05T08:03:06.036Z,986.85
2018-02-05T08:04:05.842Z,986.79
2018-02-05T08:05:05.326Z,986.79
2018-02-05T08:06:05.924Z,986.82
2018-02-05T08:07:05.668Z,986.79
2018-02-05T08:08:05.680Z,986.76
2018-02-05T08:09:05.193Z,986.73
2018-02-05T08:10:05.341Z,986.79
2018-02-05T08:11:05.224Z,986.71
2018-02-05T08:12:05.067Z,986.87
2018-02-05T08:13:05.196Z,986.79
2018-02-05T08:14:05.281Z,986.76
2018-02-05T08:15:05.978Z,986.76
2018-02-05T08:16:05.530Z,986.73
2018-02-05T08:17:05.473Z,986.84
2018-02-05T08:18:05.600Z,986.81
2018-02-05T08:19:05.321Z,986.81
2018-02-05T08:20:05.248Z,986.81
2018-02-05T08:21:05.868Z,986.76
2018-02-05T08:22:05.689Z,986.84
2018-02-05T08:23:05.229Z,986.84
2018-02-05T08:24:04.960Z,986.87
2018-02-05T08:25:05.746Z,986.90
2018-02-05T08:26:06.413Z,987.03
2018-02-05T08:27:05.812Z,986.98
2018-02-05T08:28:05.911Z,986.92
2018-02-05T08:29:05.671Z,986.81
2018-02-05T08:30:05.983Z,986.95
2018-02-05T08:31:06.760Z,986.81
2018-02-05T08:32:05.536Z,986.84
2018-02-05T08:33:05.097Z,986.89
2018-02-05T08:34:05.879Z,986.87
2018-02-05T08:35:05.374Z,986.78
2018-02-05T08:36:10.644Z,986.87
2018-02-05T08:37:05.744Z,987.00
2018-02-05T08:38:05.132Z,986.95
2018-02-05T08:39:05.103Z,986.97
2018-02-05T08:40:05.651Z,987.00
2018-02-05T08:41:05.929Z,986.95
2018-02-05T08:42:05.614Z,986.97
2018-02-05T08:43:10.834Z,987.00
2018-02-05T08:44:05.427Z,986.92
2018-02-05T08:45:05.667Z,986.92
2018-02-05T08:46:05.215Z,987.00
2018-02-05T08:47:05.609Z,987.00
2018-02-05T08:48:05.423Z,986.83
2018-02-05T08:49:05.196Z,986.92
2018-02-05T08:50:05.894Z,986.92
2018-02-05T08:51:05.877Z,986.94
2018-02-05T08:52:05.690Z,986.86
2018-02-05T08:53:05.391Z,986.86
2018-02-05T08:54:05.030Z,986.89
2018-02-05T08:55:05.513Z,986.92
2018-02-05T08:56:05.260Z,986.92
2018-02-05T08:57:05.977Z,986.86
2018-02-05T08:58:05.573Z,986.89
2018-02-05T08:59:05.304Z,986.72
2018-02-05T09:00:05.903Z,986.72
2018-02-05T09:01:05.792Z,986.86
2018-02-05T09:02:10.268Z,986.77
2018-02-05T09:03:06.330Z,986.86
2018-02-05T09:04:05.522Z,986.66
2018-02-05T09:05:05.320Z,986.72
2018-02-05T09:06:05.329Z,986.85
2018-02-05T09:07:05.509Z,986.85
2018-02-05T09:08:05.052Z,986.69
2018-02-05T09:09:05.648Z,986.74
2018-02-05T09:10:05.098Z,986.91
2018-02-05T09:11:05.031Z,986.82
2018-02-05T09:12:05.142Z,986.99
2018-02-05T09:13:06.117Z,986.80
2018-02-05T09:14:05.478Z,986.85
2018-02-05T09:15:05.114Z,986.99
2018-02-05T09:16:05.580Z,986.85
2018-02-05T09:17:05.612Z,986.93
2018-02-05T09:18:05.736Z,986.85
2018-02-05T09:19:05.733Z,986.91
2018-02-05T09:20:05.166Z,986.88
2018-02-05T09:21:05.363Z,986.91
2018-02-05T09:22:05.044Z,986.85
2018-02-05T09:23:06.135Z,986.74
2018-02-05T09:24:05.253Z,986.91
2018-02-05T09:25:06.541Z,986.74
2018-02-05T09:26:05.661Z,986.80
2018-02-05T09:27:05.690Z,986.82
2018-02-05T09:28:05.813Z,986.93
2018-02-05T09:29:05.671Z,986.91
2018-02-05T09:30:05.357Z,986.91
2018-02-05T09:31:06.468Z,986.82
2018-02-05T09:32:05.773Z,986.85
2018-02-05T09:33:05.844Z,986.85
2018-02-05T09:34:05.334Z,986.82
2018-02-05T09:35:05.094Z,986.85
2018-02-05T09:36:05.837Z,986.88
2018-02-05T09:37:05.928Z,986.79
2018-02-05T09:38:05.645Z,986.85
2018-02-05T09:39:05.269Z,986.85
2018-02-05T09:40:05.484Z,986.85
2018-02-05T09:41:05.228Z,986.88
2018-02-05T09:42:05.277Z,986.79
2018-02-05T09:43:05.596Z,986.82
2018-02-05T09:44:05.228Z,986.88
2018-02-05T09:45:05.090Z,986.93
2018-02-05T09:46:05.755Z,986.91
2018-02-05T09:47:05.445Z,986.77
2018-02-05T09:48:05.350Z,986.85
2018-02-05T09:49:04.943Z,986.82
2018-02-05T09:50:05.931Z,986.93
2018-02-05T09:51:05.792Z,986.93
2018-02-05T09:52:05.188Z,986.74
2018-02-05T09:53:05.656Z,986.85
2018-02-05T09:54:06.119Z,986.74
2018-02-05T09:55:05.104Z,986.76
2018-02-05T09:56:05.764Z,986.90
2018-02-05T09:57:05.330Z,986.79
2018-02-05T09:58:05.885Z,986.79
2018-02-05T09:59:05.094Z,986.71
2018-02-05T10:00:05.706Z,986.71
2018-02-05T10:01:05.396Z,986.87
2018-02-05T10:02:05.449Z,986.73
2018-02-05T10:03:05.554Z,986.84
2018-02-05T10:04:05.697Z,986.84
2018-02-05T10:05:05.492Z,986.87
2018-02-05T10:06:06.017Z,986.68
2018-02-05T10:07:05.224Z,986.82
2018-02-05T10:08:05.283Z,986.90
2018-02-05T10:09:05.816Z,986.79
2018-02-05T10:10:05.921Z,986.84
2018-02-05T10:11:05.880Z,986.84
2018-02-05T10:12:05.769Z,986.68
2018-02-05T10:13:05.690Z,986.81
2018-02-05T10:14:05.708Z,986.76
2018-02-05T10:15:05.891Z,986.78
2018-02-05T10:16:05.846Z,986.87
2018-02-05T10:17:05.287Z,986.95
2018-02-05T10:18:05.112Z,986.92
2018-02-05T10:19:05.526Z,986.89
2018-02-05T10:20:05.895Z,986.72
2018-02-05T10:21:06.075Z,986.83
2018-02-05T10:22:05.080Z,986.75
2018-02-05T10:23:05.700Z,986.78
2018-02-05T10:24:05.062Z,986.72
2018-02-05T10:25:05.838Z,986.75
2018-02-05T10:26:05.298Z,986.69
2018-02-05T10:27:10.029Z,986.78
2018-02-05T10:28:06.194Z,986.72
2018-02-05T10:29:05.305Z,986.80
2018-02-05T10:30:05.787Z,986.61
2018-02-05T10:31:05.475Z,986.58
2018-02-05T10:32:05.458Z,986.63
2018-02-05T10:33:05.329Z,986.50
2018-02-05T10:34:05.376Z,986.66
2018-02-05T10:35:05.053Z,986.63
2018-02-05T10:36:05.646Z,986.53
2018-02-05T10:37:05.247Z,986.60
2018-02-05T10:38:05.143Z,986.42
2018-02-05T10:39:05.377Z,986.53
2018-02-05T10:40:05.550Z,986.82
2018-02-05T10:41:06.119Z,986.44
2018-02-05T10:42:05.864Z,986.47
2018-02-05T10:43:05.958Z,986.50
2018-02-05T10:44:10.861Z,986.62
2018-02-05T10:45:05.850Z,986.49
2018-02-05T10:46:05.081Z,986.68
2018-02-05T10:47:05.384Z,986.47
2018-02-05T10:48:05.938Z,986.49
2018-02-05T10:49:05.476Z,986.49
2018-02-05T10:50:05.385Z,986.52
2018-02-05T10:51:05.710Z,986.56
2018-02-05T10:52:05.638Z,986.35
2018-02-05T10:53:05.888Z,986.49
2018-02-05T10:54:05.172Z,986.51
2018-02-05T10:55:05.062Z,986.40
2018-02-05T10:56:05.820Z,986.54
2018-02-05T10:57:10.131Z,986.48
2018-02-05T10:58:05.241Z,986.51
2018-02-05T10:59:05.454Z,986.45
2018-02-05T11:03:07.383Z,986.45
2018-02-05T11:04:06.740Z,986.58
2018-02-05T11:05:08.516Z,986.60
2018-02-05T11:12:07.451Z,986.45
2018-02-05T11:13:09.872Z,986.42
2018-02-05T11:14:11.437Z,986.45
2018-02-05T11:17:05.382Z,986.42
2018-02-05T11:18:06.089Z,986.42
2018-02-05T11:19:05.322Z,986.34
2018-02-05T11:20:06.082Z,986.37
2018-02-05T11:21:05.945Z,986.40
2018-02-05T11:22:05.498Z,986.40
2018-02-05T11:23:05.276Z,986.48
2018-02-05T11:24:06.146Z,986.40
2018-02-05T11:25:05.866Z,986.45
2018-02-05T11:26:05.211Z,986.34
2018-02-05T11:27:05.118Z,986.29
2018-02-05T11:28:04.970Z,986.37
2018-02-05T11:29:05.903Z,986.26
2018-02-05T11:30:06.023Z,986.28
2018-02-05T11:31:05.586Z,986.20
2018-02-05T11:32:05.564Z,986.34
2018-02-05T11:33:05.430Z,986.31
2018-02-05T11:34:05.402Z,986.34
2018-02-05T11:35:05.126Z,986.36
2018-02-05T11:36:05.344Z,986.20
2018-02-05T11:37:05.455Z,986.31
2018-02-05T11:38:05.191Z,986.25
2018-02-05T11:39:05.984Z,986.28
2018-02-05T11:40:05.131Z,986.08
2018-02-05T11:41:06.167Z,986.31
2018-02-05T11:42:06.905Z,986.08
2018-02-05T11:43:05.888Z,986.14
2018-02-05T11:44:05.975Z,986.08
2018-02-05T11:45:05.655Z,986.14
2018-02-05T11:46:05.265Z,986.25
2018-02-05T11:47:05.822Z,986.11
2018-02-05T11:48:05.417Z,986.08
2018-02-05T11:49:05.211Z,986.17
2018-02-05T11:50:06.032Z,986.11
2018-02-05T11:51:05.733Z,986.14
2018-02-05T11:52:05.570Z,986.17
2018-02-05T11:53:05.814Z,986.05
2018-02-05T11:54:05.577Z,986.11
2018-02-05T11:55:05.663Z,985.94
2018-02-05T11:56:05.822Z,986.03
2018-02-05T11:57:05.280Z,985.97
2018-02-05T11:58:05.970Z,986.22
2018-02-05T11:59:05.325Z,986.17
2018-02-05T12:00:05.983Z,985.95
2018-02-05T12:01:05.888Z,986.03
2018-02-05T12:02:05.680Z,986.17
2018-02-05T12:03:05.702Z,986.09
2018-02-05T12:04:05.654Z,986.06
2018-02-05T12:05:05.526Z,986.14
2018-02-05T12:06:05.197Z,986.20
2018-02-05T12:07:05.178Z,985.92
2018-02-05T12:08:05.550Z,985.97
2018-02-05T12:09:05.791Z,985.92
2018-02-05T12:10:06.180Z,985.97
2018-02-05T12:11:05.384Z,986.06
2018-02-05T12:12:05.059Z,985.97
2018-02-05T12:13:05.521Z,986.00
2018-02-05T12:14:05.437Z,985.97
2018-02-05T12:15:05.599Z,985.94
2018-02-05T12:16:05.848Z,985.89
2018-02-05T12:17:05.974Z,985.94
2018-02-05T12:18:05.678Z,986.06
2018-02-05T12:19:05.204Z,985.89
2018-02-05T12:20:05.395Z,986.08
2018-02-05T12:21:10.384Z,985.92
2018-02-05T12:22:05.720Z,986.06
2018-02-05T12:23:05.300Z,985.92
2018-02-05T12:24:05.237Z,985.83
2018-02-05T12:25:05.323Z,985.97
2018-02-05T12:26:10.876Z,985.92
2018-02-05T12:27:05.839Z,985.95
2018-02-05T12:28:05.425Z,985.92
2018-02-05T12:29:05.410Z,985.97
2018-02-05T12:30:05.315Z,985.84
2018-02-05T12:31:10.465Z,985.97
2018-02-05T12:32:05.616Z,985.86
2018-02-05T12:33:05.530Z,985.86
2018-02-05T12:34:05.371Z,985.92
2018-02-05T12:35:05.888Z,985.81
2018-02-05T12:36:05.420Z,985.81
2018-02-05T12:37:05.431Z,985.95
2018-02-05T12:38:05.287Z,985.92
2018-02-05T12:39:04.966Z,985.72